Time;durP1;ratioP1;P1;durP2;ratioP2;P2;SDS_P1;SDS_P2;PMS_P1;PMS_P2;Temp;Humidity;BMP_temperature;BMP_pressure;BME280_temperature;BME280_humidity;BME280_pressure;Samples;Min_cycle;Max_cycle;Signal;HPM_P1;HPM_P2
2024/01/15 00:00:18;;;;;;;;;;;-1.00;99.90;;;;;;5051293;28;19925;-76
2024/01/15 00:02:47;;;;;;;;;;;-1.10;99.90;;;;;;5008434;28;19962;-74
2024/01/15 00:05:16;;;;;;;;;;;-1.00;99.90;;;;;;5008674;28;20406;-73
2024/01/15 00:07:43;;;;;;;;;;;-1.00;99.90;;;;;;5007862;28;20398;-73
2024/01/15 00:10:11;;;;;;;;;;;-1.10;99.90;;;;;;5008362;28;20380;-73
2024/01/15 00:12:39;;;;;;;;;;;-1.20;99.90;;;;;;5007981;28;19948;-72
2024/01/15 00:15:07;;;;;;;;;;;-1.20;99.90;;;;;;5051159;28;19971;-72
2024/01/15 00:17:35;;;;;;;;;;;-1.40;99.90;;;;;;5007881;28;20399;-73
2024/01/15 00:20:05;;;;;;;;;;;-1.40;99.90;;;;;;5008495;28;20012;-73
2024/01/15 00:22:35;;;;;;;;;;;-1.40;99.90;;;;;;5007885;28;19926;-74
2024/01/15 00:25:03;;;;;;;;;;;-1.30;99.90;;;;;;5008527;28;19933;-73
2024/01/15 00:27:31;;;;;;;;;;;-1.30;99.90;;;;;;5008261;28;19933;-77
2024/01/15 00:29:59;;;;;;;;;;;-1.30;99.90;;;;;;5008461;28;19929;-73
2024/01/15 00:32:28;;;;;;;;;;;-1.40;99.90;;;;;;5008512;28;19926;-74
2024/01/15 00:34:55;;;;;;;;;;;-1.40;99.90;;;;;;5008145;28;19937;-74
2024/01/15 00:37:25;;;;;;;;;;;-1.40;99.90;;;;;;5007496;28;19926;-74
2024/01/15 00:39:52;;;;;;;;;;;-1.50;99.90;;;;;;5007768;28;19933;-75
2024/01/15 00:42:20;;;;;;;;;;;-1.40;99.90;;;;;;5008106;28;20145;-75
2024/01/15 00:44:48;;;;;;;;;;;-1.50;99.90;;;;;;5007993;28;19932;-76
2024/01/15 00:47:16;;;;;;;;;;;-1.60;99.90;;;;;;5007438;28;19925;-74
2024/01/15 00:49:44;;;;;;;;;;;-1.50;99.90;;;;;;5007821;28;19926;-74
2024/01/15 00:52:12;;;;;;;;;;;-1.60;99.90;;;;;;5007486;28;19926;-74
2024/01/15 00:54:41;;;;;;;;;;;-1.70;99.90;;;;;;5007715;28;19932;-74
2024/01/15 00:57:09;;;;;;;;;;;-1.70;99.90;;;;;;5010757;28;20028;-73
2024/01/15 00:59:36;;;;;;;;;;;-1.60;99.90;;;;;;5007867;28;20458;-75
2024/01/15 01:02:04;;;;;;;;;;;-1.50;99.90;;;;;;5011069;28;20300;-74
2024/01/15 01:04:32;;;;;;;;;;;-1.60;99.90;;;;;;5011292;28;19932;-74
2024/01/15 01:07:00;;;;;;;;;;;-1.60;99.90;;;;;;5002482;28;19925;-75
2024/01/15 01:09:29;;;;;;;;;;;-1.50;99.90;;;;;;5011246;28;19956;-75
2024/01/15 01:11:59;;;;;;;;;;;-1.50;99.90;;;;;;5010485;28;19932;-74
2024/01/15 01:14:26;;;;;;;;;;;-1.40;99.90;;;;;;5010621;28;19925;-75
2024/01/15 01:16:54;;;;;;;;;;;-1.40;99.90;;;;;;5010369;28;20304;-77
2024/01/15 01:19:22;;;;;;;;;;;-1.20;99.90;;;;;;5011137;28;19937;-76
2024/01/15 01:21:51;;;;;;;;;;;-1.20;99.90;;;;;;5010166;28;20375;-76
2024/01/15 01:24:19;;;;;;;;;;;-1.20;99.90;;;;;;5010969;28;19926;-74
2024/01/15 01:26:46;;;;;;;;;;;-1.10;99.90;;;;;;5010099;28;19948;-72
2024/01/15 01:29:16;;;;;;;;;;;-1.00;99.90;;;;;;5010938;28;19954;-72
2024/01/15 01:31:44;;;;;;;;;;;-1.10;99.90;;;;;;5011314;28;19926;-75
2024/01/15 01:34:14;;;;;;;;;;;-1.20;99.90;;;;;;5011238;28;20313;-75
2024/01/15 01:36:42;;;;;;;;;;;-1.10;99.90;;;;;;5010555;28;20403;-74
2024/01/15 01:39:10;;;;;;;;;;;-1.20;99.90;;;;;;5010883;28;19931;-74
2024/01/15 01:41:39;;;;;;;;;;;-1.20;99.90;;;;;;5010040;28;19926;-73
2024/01/15 01:44:07;;;;;;;;;;;-1.10;99.90;;;;;;5010676;28;19926;-75
2024/01/15 01:46:39;;;;;;;;;;;-1.00;99.90;;;;;;5010087;28;19926;-74
2024/01/15 01:49:08;;;;;;;;;;;-1.10;99.90;;;;;;5011010;28;20463;-73
2024/01/15 01:51:37;;;;;;;;;;;-1.00;99.90;;;;;;5010473;28;19930;-74
2024/01/15 01:54:05;;;;;;;;;;;-1.00;99.90;;;;;;5002751;28;20311;-73
2024/01/15 01:56:33;;;;;;;;;;;-1.00;99.90;;;;;;5014492;28;20008;-73
2024/01/15 01:59:02;;;;;;;;;;;-1.10;99.90;;;;;;5010608;28;20380;-74
2024/01/15 02:01:30;;;;;;;;;;;-1.00;99.90;;;;;;5010255;28;19925;-74
2024/01/15 02:04:00;;;;;;;;;;;-0.90;99.90;;;;;;5009908;28;19971;-74
2024/01/15 02:06:28;;;;;;;;;;;-0.90;99.90;;;;;;5009845;28;19925;-75
2024/01/15 02:08:56;;;;;;;;;;;-0.90;99.90;;;;;;5010094;28;19972;-73
2024/01/15 02:11:24;;;;;;;;;;;-0.90;99.90;;;;;;5009556;28;19933;-74
2024/01/15 02:13:52;;;;;;;;;;;-1.00;99.90;;;;;;5009934;28;19933;-73
2024/01/15 02:16:20;;;;;;;;;;;-1.00;99.90;;;;;;5009940;28;19926;-73
2024/01/15 02:18:48;;;;;;;;;;;-1.00;99.90;;;;;;5053251;28;19930;-72
2024/01/15 02:21:17;;;;;;;;;;;-1.10;99.90;;;;;;5009822;28;19967;-74
2024/01/15 02:23:46;;;;;;;;;;;-1.20;99.90;;;;;;5009516;28;19925;-73
2024/01/15 02:26:14;;;;;;;;;;;-1.10;99.90;;;;;;5009406;28;19994;-74
2024/01/15 02:28:44;;;;;;;;;;;-1.10;99.90;;;;;;5009753;28;19925;-73
2024/01/15 02:31:12;;;;;;;;;;;-1.20;99.90;;;;;;5009723;28;19937;-74
2024/01/15 02:33:41;;;;;;;;;;;-1.20;99.90;;;;;;5009685;28;19937;-74
2024/01/15 02:36:10;;;;;;;;;;;-1.10;99.90;;;;;;5028574;28;19989;-74
2024/01/15 02:38:38;;;;;;;;;;;-1.10;99.90;;;;;;5030929;28;19925;-74
2024/01/15 02:41:07;;;;;;;;;;;-1.10;99.90;;;;;;5009208;28;19936;-74
2024/01/15 02:43:34;;;;;;;;;;;-1.00;99.90;;;;;;5009785;28;20337;-73
2024/01/15 02:46:02;;;;;;;;;;;-0.90;99.90;;;;;;5008807;28;19941;-77
2024/01/15 02:48:30;;;;;;;;;;;-0.90;99.90;;;;;;5009444;28;19929;-73
2024/01/15 02:50:58;;;;;;;;;;;-0.90;99.90;;;;;;5009231;28;19926;-73
2024/01/15 02:53:26;;;;;;;;;;;-0.90;99.90;;;;;;5009240;28;20342;-73
2024/01/15 02:55:53;;;;;;;;;;;-0.90;99.90;;;;;;5009085;28;20396;-73
2024/01/15 02:58:23;;;;;;;;;;;-0.80;99.90;;;;;;5015841;28;19925;-74
2024/01/15 03:00:50;;;;;;;;;;;-0.90;99.90;;;;;;5008957;28;19936;-73
2024/01/15 03:03:18;;;;;;;;;;;-0.90;99.90;;;;;;5009335;28;19925;-73
2024/01/15 03:05:47;;;;;;;;;;;-0.80;99.90;;;;;;5008528;28;19925;-73
2024/01/15 03:08:14;;;;;;;;;;;-0.80;99.90;;;;;;5009063;28;19930;-73
2024/01/15 03:10:43;;;;;;;;;;;-0.80;99.90;;;;;;5008938;28;20376;-74
2024/01/15 03:13:10;;;;;;;;;;;-0.70;99.90;;;;;;5001158;28;19932;-75
2024/01/15 03:15:40;;;;;;;;;;;-0.60;99.90;;;;;;5008845;28;19933;-76
2024/01/15 03:18:08;;;;;;;;;;;-0.60;99.90;;;;;;5008956;28;19926;-75
2024/01/15 03:20:35;;;;;;;;;;;-0.40;99.90;;;;;;5009169;28;19925;-73
2024/01/15 03:23:03;;;;;;;;;;;-0.30;99.90;;;;;;5008003;28;19930;-73
2024/01/15 03:25:31;;;;;;;;;;;-0.20;99.90;;;;;;5009079;28;19955;-73
2024/01/15 03:27:59;;;;;;;;;;;-0.10;99.90;;;;;;5017188;28;19926;-72
2024/01/15 03:30:27;;;;;;;;;;;-0.20;99.90;;;;;;5039648;28;19933;-75
2024/01/15 03:32:56;;;;;;;;;;;-0.30;99.90;;;;;;5051786;28;19930;-74
2024/01/15 03:35:29;;;;;;;;;;;-0.20;99.90;;;;;;5032905;28;19925;-74
2024/01/15 03:37:56;;;;;;;;;;;-0.40;99.90;;;;;;5015428;28;19925;-74
2024/01/15 03:40:24;;;;;;;;;;;-0.30;99.90;;;;;;5087431;28;20012;-73
2024/01/15 03:42:52;;;;;;;;;;;-0.10;99.90;;;;;;5012058;28;20437;-74
2024/01/15 03:45:20;;;;;;;;;;;-0.20;99.90;;;;;;5046761;28;19932;-75
2024/01/15 03:47:48;;;;;;;;;;;-0.30;99.90;;;;;;5008218;28;19925;-75
2024/01/15 03:50:17;;;;;;;;;;;-0.10;99.90;;;;;;5008724;28;20445;-74
2024/01/15 03:52:45;;;;;;;;;;;0.20;99.90;;;;;;5008066;28;19971;-75
2024/01/15 03:55:13;;;;;;;;;;;0.00;99.90;;;;;;5008484;28;19978;-76
2024/01/15 03:57:41;;;;;;;;;;;0.00;99.90;;;;;;5014997;28;19925;-74
2024/01/15 04:00:09;;;;;;;;;;;0.00;99.90;;;;;;5008152;28;19926;-74
2024/01/15 04:02:37;;;;;;;;;;;0.00;99.90;;;;;;5008303;28;19939;-75
2024/01/15 04:05:05;;;;;;;;;;;0.20;99.90;;;;;;5008221;28;19972;-77
2024/01/15 04:07:34;;;;;;;;;;;0.40;99.90;;;;;;5007919;28;19946;-77
2024/01/15 04:10:02;;;;;;;;;;;0.30;99.90;;;;;;5008038;28;19926;-74
2024/01/15 04:12:30;;;;;;;;;;;0.40;99.90;;;;;;5007861;28;19947;-73
2024/01/15 04:14:58;;;;;;;;;;;0.20;99.90;;;;;;5008006;28;19964;-73
2024/01/15 04:17:26;;;;;;;;;;;0.20;99.90;;;;;;5032707;28;20015;-74
2024/01/15 04:19:54;;;;;;;;;;;0.00;99.90;;;;;;5067526;28;19929;-74
2024/01/15 04:22:21;;;;;;;;;;;0.10;99.90;;;;;;5008707;28;20472;-77
2024/01/15 04:24:50;;;;;;;;;;;-0.10;99.90;;;;;;5008331;28;19925;-74
2024/01/15 04:27:18;;;;;;;;;;;-0.10;99.90;;;;;;4999727;28;19932;-73
2024/01/15 04:29:46;;;;;;;;;;;0.00;99.90;;;;;;5008094;28;19975;-73
2024/01/15 04:32:14;;;;;;;;;;;-0.10;99.90;;;;;;5007854;28;20020;-74
2024/01/15 04:34:42;;;;;;;;;;;0.10;99.90;;;;;;5009956;28;19926;-73
2024/01/15 04:37:10;;;;;;;;;;;0.10;99.90;;;;;;5010964;28;19925;-73
2024/01/15 04:39:37;;;;;;;;;;;0.30;99.90;;;;;;5011182;28;19926;-73
2024/01/15 04:42:07;;;;;;;;;;;0.40;99.90;;;;;;5010872;28;20122;-74
2024/01/15 04:44:35;;;;;;;;;;;0.30;99.90;;;;;;5011766;28;20300;-73
2024/01/15 04:47:02;;;;;;;;;;;0.20;99.90;;;;;;5010941;28;20289;-73
2024/01/15 04:49:30;;;;;;;;;;;0.20;99.90;;;;;;5037048;28;20427;-73
2024/01/15 04:51:58;;;;;;;;;;;0.30;99.90;;;;;;5025920;28;19932;-73
2024/01/15 04:54:26;;;;;;;;;;;0.40;99.90;;;;;;5011493;28;20486;-74
2024/01/15 04:56:54;;;;;;;;;;;0.20;99.90;;;;;;5010970;28;20319;-73
2024/01/15 04:59:23;;;;;;;;;;;0.10;99.90;;;;;;5003420;28;20017;-75
2024/01/15 05:01:50;;;;;;;;;;;0.20;99.90;;;;;;5011169;28;19939;-73
2024/01/15 05:04:18;;;;;;;;;;;0.10;99.90;;;;;;5011125;28;19926;-74
2024/01/15 05:06:46;;;;;;;;;;;0.00;99.90;;;;;;5005811;28;19925;-74
2024/01/15 05:09:14;;;;;;;;;;;0.00;99.90;;;;;;5023731;28;19929;-74
2024/01/15 05:11:42;;;;;;;;;;;0.10;99.90;;;;;;5038097;28;19932;-73
2024/01/15 05:14:10;;;;;;;;;;;-0.10;99.90;;;;;;5010845;28;20326;-75
2024/01/15 05:16:40;;;;;;;;;;;-0.10;99.90;;;;;;5010852;28;19925;-73
2024/01/15 05:19:08;;;;;;;;;;;-0.20;99.90;;;;;;5010682;28;19925;-73
2024/01/15 05:21:36;;;;;;;;;;;-0.20;99.90;;;;;;5011038;28;20582;-73
2024/01/15 05:24:04;;;;;;;;;;;-0.30;99.90;;;;;;5010619;28;19933;-73
2024/01/15 05:26:32;;;;;;;;;;;-0.20;99.90;;;;;;5010540;28;19925;-73
2024/01/15 05:29:00;;;;;;;;;;;-0.20;99.90;;;;;;5010474;28;19925;-73
2024/01/15 05:31:28;;;;;;;;;;;-0.20;99.90;;;;;;5020976;28;19937;-74
2024/01/15 05:33:57;;;;;;;;;;;-0.20;99.90;;;;;;5009232;28;19968;-73
2024/01/15 05:36:25;;;;;;;;;;;-0.20;99.90;;;;;;5007261;28;20541;-75
2024/01/15 05:38:53;;;;;;;;;;;-0.10;99.90;;;;;;5009479;28;19929;-73
2024/01/15 05:41:20;;;;;;;;;;;-0.20;99.90;;;;;;5009025;28;19934;-69
2024/01/15 05:43:48;;;;;;;;;;;-0.30;99.90;;;;;;5009320;28;19925;-72
2024/01/15 05:46:16;;;;;;;;;;;-0.40;99.90;;;;;;4998690;28;20415;-69
2024/01/15 05:48:44;;;;;;;;;;;-0.50;99.90;;;;;;4998967;28;19934;-69
2024/01/15 05:51:13;;;;;;;;;;;-0.50;99.90;;;;;;4998337;28;20054;-72
2024/01/15 05:53:42;;;;;;;;;;;-0.50;99.90;;;;;;4999393;28;20534;-72
2024/01/15 05:56:11;;;;;;;;;;;-0.50;99.90;;;;;;4998121;28;19934;-71
2024/01/15 05:58:38;;;;;;;;;;;-0.60;99.90;;;;;;4999847;28;19940;-72
2024/01/15 06:01:06;;;;;;;;;;;-0.70;99.90;;;;;;4998797;28;19929;-68
2024/01/15 06:03:35;;;;;;;;;;;-0.70;99.90;;;;;;5000354;28;19925;-71
2024/01/15 06:06:03;;;;;;;;;;;-0.60;99.90;;;;;;5000431;28;19933;-71
2024/01/15 06:08:32;;;;;;;;;;;-0.60;99.90;;;;;;4999646;28;19933;-72
2024/01/15 06:11:00;;;;;;;;;;;-0.60;99.90;;;;;;4999271;28;19961;-71
2024/01/15 06:13:29;;;;;;;;;;;-0.60;99.90;;;;;;4998911;28;19937;-69
2024/01/15 06:15:56;;;;;;;;;;;-0.60;99.90;;;;;;4999257;28;19933;-69
2024/01/15 06:18:24;;;;;;;;;;;-0.60;99.90;;;;;;4999395;28;19933;-72
2024/01/15 06:20:52;;;;;;;;;;;-0.60;99.90;;;;;;4998614;28;20514;-71
2024/01/15 06:23:21;;;;;;;;;;;-0.60;99.90;;;;;;4999687;28;19933;-67
2024/01/15 06:25:50;;;;;;;;;;;-0.60;99.90;;;;;;4998819;28;19934;-70
2024/01/15 06:28:18;;;;;;;;;;;-0.60;99.90;;;;;;5000896;28;20026;-70
2024/01/15 06:30:45;;;;;;;;;;;-0.60;99.90;;;;;;4999883;28;19933;-71
2024/01/15 06:33:13;;;;;;;;;;;-0.60;99.90;;;;;;4999651;28;19929;-68
2024/01/15 06:35:42;;;;;;;;;;;-0.60;99.90;;;;;;4998387;28;19941;-71
2024/01/15 06:38:09;;;;;;;;;;;-0.60;99.90;;;;;;4999366;28;19956;-72
2024/01/15 06:40:37;;;;;;;;;;;-0.60;99.90;;;;;;4998741;28;19936;-69
2024/01/15 06:43:06;;;;;;;;;;;-0.50;99.90;;;;;;4998227;28;19937;-69
2024/01/15 06:45:35;;;;;;;;;;;-0.50;99.90;;;;;;4998844;28;19929;-72
2024/01/15 06:48:03;;;;;;;;;;;-0.40;99.90;;;;;;4999411;28;20412;-71
2024/01/15 06:50:31;;;;;;;;;;;-0.40;99.90;;;;;;4999625;28;19934;-72
2024/01/15 06:52:59;;;;;;;;;;;-0.30;99.90;;;;;;4999401;28;19937;-72
2024/01/15 06:55:27;;;;;;;;;;;-0.40;99.90;;;;;;4998820;28;19957;-68
2024/01/15 06:57:55;;;;;;;;;;;-0.40;99.90;;;;;;4998275;28;19929;-71
2024/01/15 07:00:24;;;;;;;;;;;-0.40;99.90;;;;;;4998701;28;19934;-68
2024/01/15 07:02:52;;;;;;;;;;;-0.40;99.90;;;;;;5001382;28;20059;-71
2024/01/15 07:05:21;;;;;;;;;;;-0.40;99.90;;;;;;5000101;28;19934;-70
2024/01/15 07:07:49;;;;;;;;;;;-0.40;99.90;;;;;;4998584;28;19972;-72
2024/01/15 07:10:17;;;;;;;;;;;-0.40;99.90;;;;;;5001926;28;19933;-69
2024/01/15 07:12:45;;;;;;;;;;;-0.40;99.90;;;;;;5003658;28;19930;-70
2024/01/15 07:15:12;;;;;;;;;;;-0.40;99.90;;;;;;5008147;28;19984;-68
2024/01/15 07:17:42;;;;;;;;;;;-0.40;99.90;;;;;;5008888;28;19926;-69
2024/01/15 07:20:10;;;;;;;;;;;-0.40;99.90;;;;;;5007703;28;19930;-72
2024/01/15 07:22:38;;;;;;;;;;;-0.40;99.90;;;;;;5009993;28;19930;-71
2024/01/15 07:25:06;;;;;;;;;;;-0.40;99.90;;;;;;5014689;28;19925;-69
2024/01/15 07:27:34;;;;;;;;;;;-0.40;99.90;;;;;;5000459;28;20050;-73
2024/01/15 07:30:05;;;;;;;;;;;-0.40;99.90;;;;;;5008891;28;19929;-68
2024/01/15 07:32:33;;;;;;;;;;;-0.40;99.90;;;;;;5051152;28;19930;-74
2024/01/15 07:35:02;;;;;;;;;;;-0.30;99.90;;;;;;5009062;28;19929;-71
2024/01/15 07:37:30;;;;;;;;;;;-0.30;99.90;;;;;;5008564;28;19962;-71
2024/01/15 07:39:58;;;;;;;;;;;-0.30;99.90;;;;;;5008955;28;19933;-71
2024/01/15 07:42:26;;;;;;;;;;;-0.30;99.90;;;;;;5008207;28;19926;-72
2024/01/15 07:44:53;;;;;;;;;;;-0.30;99.90;;;;;;5008840;28;19975;-72
2024/01/15 07:47:22;;;;;;;;;;;-0.30;99.90;;;;;;5008172;28;19936;-71
2024/01/15 07:49:50;;;;;;;;;;;-0.30;99.90;;;;;;5008728;28;19932;-72
2024/01/15 07:52:19;;;;;;;;;;;-0.20;99.90;;;;;;5006978;28;20207;-71
2024/01/15 07:54:47;;;;;;;;;;;-0.20;99.90;;;;;;5002023;28;19933;-70
2024/01/15 07:57:14;;;;;;;;;;;-0.20;99.90;;;;;;5008005;28;20020;-70
2024/01/15 07:59:43;;;;;;;;;;;-0.20;99.90;;;;;;5008848;28;19929;-71
2024/01/15 08:02:11;;;;;;;;;;;-0.10;99.90;;;;;;5008246;28;20273;-70
2024/01/15 08:04:39;;;;;;;;;;;-0.10;99.90;;;;;;5000458;28;19926;-71
2024/01/15 08:07:07;;;;;;;;;;;-0.10;99.90;;;;;;5008230;28;19978;-70
2024/01/15 08:09:37;;;;;;;;;;;0.00;99.90;;;;;;5007758;28;20430;-69
2024/01/15 08:12:06;;;;;;;;;;;0.00;99.90;;;;;;5007854;28;19971;-69
2024/01/15 08:14:34;;;;;;;;;;;0.20;99.90;;;;;;5008425;28;19987;-69
2024/01/15 08:17:02;;;;;;;;;;;0.10;99.90;;;;;;5008092;28;20277;-69
2024/01/15 08:19:31;;;;;;;;;;;0.20;99.90;;;;;;5008309;28;20300;-69
2024/01/15 08:21:59;;;;;;;;;;;0.10;99.90;;;;;;5008076;28;19926;-72
2024/01/15 08:24:28;;;;;;;;;;;0.20;99.90;;;;;;5008098;28;19933;-71
2024/01/15 08:26:57;;;;;;;;;;;0.20;99.90;;;;;;5007943;28;20396;-69
2024/01/15 08:29:25;;;;;;;;;;;0.20;99.90;;;;;;5008243;28;19926;-69
2024/01/15 08:31:53;;;;;;;;;;;0.20;99.90;;;;;;5008005;28;19929;-69
2024/01/15 08:34:21;;;;;;;;;;;0.20;99.90;;;;;;5007949;28;19926;-69
2024/01/15 08:36:49;;;;;;;;;;;0.20;99.90;;;;;;5007758;28;20449;-69
2024/01/15 08:39:19;;;;;;;;;;;0.20;99.90;;;;;;5007710;28;19926;-71
2024/01/15 08:41:47;;;;;;;;;;;0.20;99.90;;;;;;5007529;28;19926;-71
2024/01/15 08:44:16;;;;;;;;;;;0.20;99.90;;;;;;5008053;28;20391;-72
2024/01/15 08:46:44;;;;;;;;;;;0.20;99.90;;;;;;5000121;28;19929;-74
2024/01/15 08:49:12;;;;;;;;;;;0.10;99.90;;;;;;5008154;28;19929;-71
2024/01/15 08:51:40;;;;;;;;;;;0.20;99.90;;;;;;5050335;28;19969;-71
2024/01/15 08:54:09;;;;;;;;;;;0.20;99.90;;;;;;5008330;28;19932;-69
2024/01/15 08:56:37;;;;;;;;;;;0.30;99.90;;;;;;5007250;28;20393;-69
2024/01/15 08:59:05;;;;;;;;;;;0.30;99.90;;;;;;5007781;28;19933;-70
2024/01/15 09:01:34;;;;;;;;;;;0.30;99.90;;;;;;5007311;28;19932;-69
2024/01/15 09:04:03;;;;;;;;;;;0.40;99.90;;;;;;5007845;28;20451;-71
2024/01/15 09:06:31;;;;;;;;;;;0.40;99.90;;;;;;5007016;28;19925;-69
2024/01/15 09:09:00;;;;;;;;;;;0.40;99.90;;;;;;5007719;28;19933;-69
2024/01/15 09:11:27;;;;;;;;;;;0.40;99.90;;;;;;5007235;28;20296;-69
2024/01/15 09:13:55;;;;;;;;;;;0.40;99.90;;;;;;5007666;28;19925;-69
2024/01/15 09:16:23;;;;;;;;;;;0.50;99.90;;;;;;5006949;28;19925;-70
2024/01/15 09:18:52;;;;;;;;;;;0.50;99.90;;;;;;5008044;28;20397;-70
2024/01/15 09:21:20;;;;;;;;;;;0.70;99.90;;;;;;5008040;28;20311;-72
2024/01/15 09:23:48;;;;;;;;;;;0.70;99.90;;;;;;5011129;28;19933;-70
2024/01/15 09:26:16;;;;;;;;;;;0.90;99.90;;;;;;5010833;28;19925;-70
2024/01/15 09:28:44;;;;;;;;;;;1.00;99.90;;;;;;5010663;28;19933;-70
2024/01/15 09:31:12;;;;;;;;;;;1.10;99.90;;;;;;5010422;28;19934;-70
2024/01/15 09:33:39;;;;;;;;;;;1.30;99.90;;;;;;5010630;28;20315;-73
2024/01/15 09:36:09;;;;;;;;;;;1.50;99.90;;;;;;5010249;28;19973;-71
2024/01/15 09:38:37;;;;;;;;;;;1.50;99.90;;;;;;5010529;28;20032;-70
2024/01/15 09:41:05;;;;;;;;;;;1.30;99.90;;;;;;5002438;28;20022;-70
2024/01/15 09:43:33;;;;;;;;;;;1.30;99.90;;;;;;5010354;28;19979;-70
2024/01/15 09:46:02;;;;;;;;;;;1.30;99.90;;;;;;5010383;28;20308;-70
2024/01/15 09:48:30;;;;;;;;;;;1.30;99.90;;;;;;5010661;28;19973;-71
2024/01/15 09:50:58;;;;;;;;;;;1.30;99.90;;;;;;5010366;28;19990;-72
2024/01/15 09:53:28;;;;;;;;;;;1.40;99.90;;;;;;5009883;28;20020;-73
2024/01/15 09:55:55;;;;;;;;;;;1.50;99.90;;;;;;5010236;28;20403;-72
2024/01/15 09:58:24;;;;;;;;;;;1.50;99.90;;;;;;5010028;28;19926;-73
2024/01/15 10:00:52;;;;;;;;;;;1.50;99.90;;;;;;5010117;28;19936;-73
2024/01/15 10:03:21;;;;;;;;;;;1.40;99.90;;;;;;5010286;28;19934;-72
2024/01/15 10:05:50;;;;;;;;;;;1.50;99.90;;;;;;5002256;28;20463;-75
2024/01/15 10:08:19;;;;;;;;;;;1.50;99.90;;;;;;5010851;28;19988;-72
2024/01/15 10:10:48;;;;;;;;;;;1.60;99.90;;;;;;5009702;28;19948;-73
2024/01/15 10:13:16;;;;;;;;;;;1.70;99.90;;;;;;5052649;28;19925;-72
2024/01/15 10:15:46;;;;;;;;;;;1.70;99.90;;;;;;5009914;28;19930;-72
2024/01/15 10:18:15;;;;;;;;;;;1.70;99.90;;;;;;5010435;28;19929;-72
2024/01/15 10:20:43;;;;;;;;;;;1.60;99.90;;;;;;5009568;28;20397;-69
2024/01/15 10:23:10;;;;;;;;;;;1.50;99.90;;;;;;5009897;28;20026;-70
2024/01/15 10:25:38;;;;;;;;;;;1.60;99.90;;;;;;5009437;28;20376;-70
2024/01/15 10:28:07;;;;;;;;;;;1.60;99.90;;;;;;5009964;28;19929;-71
2024/01/15 10:30:35;;;;;;;;;;;1.70;99.90;;;;;;5009638;28;19925;-70
2024/01/15 10:33:04;;;;;;;;;;;1.70;99.90;;;;;;5009653;28;20304;-70
2024/01/15 10:35:34;;;;;;;;;;;1.80;99.90;;;;;;5009815;28;19932;-70
2024/01/15 10:38:02;;;;;;;;;;;1.90;99.90;;;;;;5009590;28;19929;-70
2024/01/15 10:40:30;;;;;;;;;;;2.00;99.90;;;;;;5009577;28;19965;-71
2024/01/15 10:42:58;;;;;;;;;;;2.10;99.90;;;;;;5009500;28;19926;-69
2024/01/15 10:45:27;;;;;;;;;;;2.00;99.90;;;;;;5009789;28;19932;-70
2024/01/15 10:47:58;;;;;;;;;;;1.90;99.90;;;;;;5009273;28;19926;-70
2024/01/15 10:50:26;;;;;;;;;;;1.80;99.90;;;;;;5009669;28;19991;-72
2024/01/15 10:52:54;;;;;;;;;;;1.60;99.90;;;;;;5001430;28;19925;-70
2024/01/15 10:55:24;;;;;;;;;;;1.50;99.90;;;;;;5009757;28;19926;-70
2024/01/15 10:57:52;;;;;;;;;;;1.50;99.90;;;;;;5008738;28;20379;-70
2024/01/15 11:00:21;;;;;;;;;;;1.50;99.90;;;;;;5009562;28;19925;-70
2024/01/15 11:02:51;;;;;;;;;;;1.60;99.90;;;;;;5009239;28;19980;-72
2024/01/15 11:05:22;;;;;;;;;;;1.50;99.90;;;;;;5009423;28;19929;-72
2024/01/15 11:07:50;;;;;;;;;;;1.60;99.90;;;;;;5008908;28;19933;-70
2024/01/15 11:10:36;;;;;;;;;;;1.50;99.90;;;;;;5009516;28;19932;-70
2024/01/15 11:13:05;;;;;;;;;;;1.60;99.90;;;;;;5002300;28;20371;-71
2024/01/15 11:15:33;;;;;;;;;;;1.60;99.90;;;;;;5009002;28;19926;-72
2024/01/15 11:18:05;;;;;;;;;;;1.70;99.90;;;;;;5009067;28;19963;-70
2024/01/15 11:20:33;;;;;;;;;;;1.70;99.90;;;;;;5008936;28;19930;-70
2024/01/15 11:23:01;;;;;;;;;;;1.80;99.90;;;;;;5009069;28;19929;-71
2024/01/15 11:25:35;;;;;;;;;;;1.90;99.90;;;;;;5009163;28;19929;-73
2024/01/15 11:28:03;;;;;;;;;;;1.90;99.90;;;;;;5008720;28;19949;-73
2024/01/15 11:30:31;;;;;;;;;;;2.00;99.90;;;;;;5009175;28;19948;-70
2024/01/15 11:32:59;;;;;;;;;;;2.00;99.90;;;;;;5001128;28;19933;-70
2024/01/15 11:35:49;;;;;;;;;;;1.90;99.90;;;;;;5008962;28;20404;-70
2024/01/15 11:38:27;;;;;;;;;;;1.80;99.90;;;;;;5009026;28;20467;-71
2024/01/15 11:40:55;;;;;;;;;;;1.90;99.90;;;;;;5009068;28;19929;-70
2024/01/15 11:43:23;;;;;;;;;;;1.90;99.90;;;;;;5008197;28;19932;-70
2024/01/15 11:45:52;;;;;;;;;;;1.90;99.90;;;;;;5008243;28;19937;-70
2024/01/15 11:48:23;;;;;;;;;;;2.00;99.90;;;;;;5009143;28;20014;-71
2024/01/15 11:50:53;;;;;;;;;;;2.10;99.90;;;;;;5008297;28;19983;-70
2024/01/15 11:53:26;;;;;;;;;;;2.00;99.90;;;;;;5008387;28;19969;-70
2024/01/15 11:55:58;;;;;;;;;;;2.10;99.90;;;;;;5008302;28;19933;-71
2024/01/15 11:58:26;;;;;;;;;;;2.20;99.90;;;;;;5008340;28;19926;-70
2024/01/15 12:00:54;;;;;;;;;;;2.30;99.90;;;;;;5008363;28;19940;-71
2024/01/15 12:03:23;;;;;;;;;;;2.30;99.90;;;;;;5008509;28;20368;-70
2024/01/15 12:05:54;;;;;;;;;;;2.30;99.90;;;;;;5007121;28;21150;-70
2024/01/15 12:08:23;;;;;;;;;;;2.30;99.90;;;;;;5008398;28;19929;-71
2024/01/15 12:10:51;;;;;;;;;;;2.30;99.90;;;;;;5008105;28;19933;-70
2024/01/15 12:13:19;;;;;;;;;;;2.30;99.90;;;;;;5008286;28;20427;-70
2024/01/15 12:15:47;;;;;;;;;;;2.30;99.90;;;;;;5007874;28;19957;-70
2024/01/15 12:18:17;;;;;;;;;;;2.30;99.90;;;;;;5008033;28;19965;-71
2024/01/15 12:20:47;;;;;;;;;;;2.30;99.90;;;;;;5008027;28;19929;-70
2024/01/15 12:23:17;;;;;;;;;;;2.30;99.90;;;;;;5008259;28;20426;-70
2024/01/15 12:25:46;;;;;;;;;;;2.30;99.90;;;;;;5008129;28;19994;-70
2024/01/15 12:28:15;;;;;;;;;;;2.30;99.90;;;;;;5034773;28;19930;-71
2024/01/15 12:30:44;;;;;;;;;;;2.30;99.90;;;;;;5021447;28;19934;-74
2024/01/15 12:33:12;;;;;;;;;;;2.40;99.90;;;;;;5008240;28;19929;-70
2024/01/15 12:35:40;;;;;;;;;;;2.30;99.90;;;;;;5007515;28;19940;-72
2024/01/15 12:38:08;;;;;;;;;;;2.30;99.90;;;;;;5008079;28;20443;-72
2024/01/15 12:40:37;;;;;;;;;;;2.30;99.90;;;;;;5008104;28;20276;-72
2024/01/15 12:43:06;;;;;;;;;;;2.30;99.90;;;;;;5007792;28;20023;-72
2024/01/15 12:45:35;;;;;;;;;;;2.30;99.90;;;;;;5008297;28;20020;-72
2024/01/15 12:48:03;;;;;;;;;;;2.30;99.90;;;;;;5007705;28;19952;-71
2024/01/15 12:50:31;;;;;;;;;;;2.30;99.90;;;;;;5008008;28;19929;-74
2024/01/15 12:52:59;;;;;;;;;;;2.30;99.90;;;;;;5007671;28;19940;-72
2024/01/15 12:55:27;;;;;;;;;;;2.30;99.90;;;;;;5002841;28;19983;-71
2024/01/15 12:57:56;;;;;;;;;;;2.30;99.90;;;;;;5009529;28;19925;-72
2024/01/15 13:00:25;;;;;;;;;;;2.30;99.90;;;;;;5011320;28;19932;-72
2024/01/15 13:02:54;;;;;;;;;;;2.40;99.90;;;;;;5011076;28;19926;-74
2024/01/15 13:05:23;;;;;;;;;;;2.40;99.90;;;;;;5011296;28;19947;-72
2024/01/15 13:07:52;;;;;;;;;;;2.40;99.90;;;;;;5010175;28;19929;-70
2024/01/15 13:10:19;;;;;;;;;;;2.40;99.90;;;;;;5011268;28;19932;-72
2024/01/15 13:12:52;;;;;;;;;;;2.40;99.90;;;;;;5102681;22;19975;-65
2024/01/15 13:15:21;;;;;;;;;;;2.40;99.90;;;;;;5102542;28;20011;-65
2024/01/15 13:17:49;;;;;;;;;;;2.30;99.90;;;;;;5093395;28;19928;-66
2024/01/15 13:20:17;;;;;;;;;;;2.30;99.90;;;;;;5102611;28;20425;-65
2024/01/15 13:22:45;;;;;;;;;;;2.40;99.90;;;;;;5093708;28;19932;-68
2024/01/15 13:25:13;;;;;;;;;;;2.40;99.90;;;;;;5102676;28;19931;-65
2024/01/15 13:27:41;;;;;;;;;;;2.40;99.90;;;;;;5101652;28;20556;-66
2024/01/15 13:30:12;;;;;;;;;;;2.40;99.90;;;;;;5093941;28;19928;-66
2024/01/15 13:32:42;;;;;;;;;;;2.40;99.90;;;;;;5093789;28;20034;-65
2024/01/15 13:35:12;;;;;;;;;;;2.50;99.90;;;;;;5094101;28;19924;-66
2024/01/15 13:37:42;;;;;;;;;;;2.40;99.90;;;;;;5093795;28;20298;-66
2024/01/15 13:40:16;;;;;;;;;;;2.40;99.90;;;;;;5093842;28;20367;-66
2024/01/15 13:42:44;;;;;;;;;;;2.50;99.90;;;;;;5093773;28;19924;-65
2024/01/15 13:45:14;;;;;;;;;;;2.50;99.90;;;;;;5093839;28;19931;-66
2024/01/15 13:47:44;;;;;;;;;;;2.40;99.90;;;;;;5101420;28;19931;-66
2024/01/15 13:50:12;;;;;;;;;;;2.30;99.90;;;;;;5085746;28;20418;-66
2024/01/15 13:52:39;;;;;;;;;;;2.30;99.90;;;;;;5101114;28;19928;-66
2024/01/15 13:55:08;;;;;;;;;;;2.30;99.90;;;;;;5094005;28;20290;-66
2024/01/15 13:57:36;;;;;;;;;;;2.30;99.90;;;;;;5101478;28;19931;-66
2024/01/15 14:00:09;;;;;;;;;;;2.30;99.90;;;;;;5101682;28;19924;-66
2024/01/15 14:02:37;;;;;;;;;;;2.40;99.90;;;;;;5093265;28;19938;-66
2024/01/15 14:05:07;;;;;;;;;;;2.40;99.90;;;;;;5093074;28;20718;-66
2024/01/15 14:07:35;;;;;;;;;;;2.40;99.90;;;;;;5091787;28;19928;-66
2024/01/15 14:10:03;;;;;;;;;;;2.40;99.90;;;;;;5104057;28;20307;-66
2024/01/15 14:12:31;;;;;;;;;;;2.40;99.90;;;;;;5098271;28;19985;-66
2024/01/15 14:14:59;;;;;;;;;;;2.30;99.90;;;;;;5092550;28;20010;-67
2024/01/15 14:17:28;;;;;;;;;;;2.30;99.90;;;;;;5098444;28;19924;-66
2024/01/15 14:19:56;;;;;;;;;;;2.30;99.90;;;;;;5103025;28;19954;-67
2024/01/15 14:22:25;;;;;;;;;;;2.30;99.90;;;;;;5098359;28;20325;-66
2024/01/15 14:24:53;;;;;;;;;;;2.40;99.90;;;;;;5095329;28;19924;-66
2024/01/15 14:27:22;;;;;;;;;;;2.40;99.90;;;;;;5097383;28;19927;-66
2024/01/15 14:29:50;;;;;;;;;;;2.40;99.90;;;;;;5095487;28;19928;-66